createdAt,value
2023-05-25T00:00:16.010Z,19.53
2023-05-25T00:01:17.955Z,19.53
2023-05-25T00:02:20.324Z,19.52
2023-05-25T00:03:22.350Z,19.52
2023-05-25T00:04:27.409Z,19.48
2023-05-25T00:05:29.531Z,19.45
2023-05-25T00:06:32.628Z,19.42
2023-05-25T00:07:34.764Z,19.38
2023-05-25T00:08:36.633Z,19.37
2023-05-25T00:09:38.747Z,19.38
2023-05-25T00:10:40.764Z,19.36
2023-05-25T00:11:42.828Z,19.36
2023-05-25T00:12:44.714Z,19.35
2023-05-25T00:13:46.847Z,19.36
2023-05-25T00:14:49.196Z,19.34
2023-05-25T00:15:51.281Z,19.35
2023-05-25T00:16:53.421Z,19.35
2023-05-25T00:17:56.227Z,19.37
2023-05-25T00:18:58.150Z,19.38
2023-05-25T00:20:09.764Z,19.36
2023-05-25T00:21:12.088Z,19.37
2023-05-25T00:22:14.146Z,19.37
2023-05-25T00:23:16.542Z,19.36
2023-05-25T00:24:18.837Z,19.36
2023-05-25T00:25:21.186Z,19.36
2023-05-25T00:26:23.292Z,19.33
2023-05-25T00:27:25.530Z,19.34
2023-05-25T00:28:27.528Z,19.33
2023-05-25T00:29:29.878Z,19.34
2023-05-25T00:30:31.907Z,19.34
2023-05-25T00:31:35.687Z,19.34
2023-05-25T00:32:38.036Z,19.35
2023-05-25T00:33:39.955Z,19.35
2023-05-25T00:34:42.543Z,19.34
2023-05-25T00:35:44.978Z,19.32
2023-05-25T00:36:50.176Z,19.36
2023-05-25T00:37:52.214Z,19.35
2023-05-25T00:38:54.146Z,19.35
2023-05-25T00:39:55.980Z,19.34
2023-05-25T00:42:17.110Z,19.39
2023-05-25T00:43:21.772Z,19.42
2023-05-25T00:44:23.592Z,19.40
2023-05-25T00:45:25.700Z,19.39
2023-05-25T00:46:28.482Z,19.41
2023-05-25T00:47:31.811Z,19.42
2023-05-25T00:48:33.890Z,19.44
2023-05-25T00:49:36.751Z,19.45
2023-05-25T00:50:42.522Z,19.46
2023-05-25T00:51:48.607Z,19.46
2023-05-25T00:52:50.774Z,19.45
2023-05-25T00:53:53.551Z,19.47
2023-05-25T00:54:59.203Z,19.47
2023-05-25T00:56:20.892Z,19.47
2023-05-25T00:57:25.621Z,19.47
2023-05-25T00:58:31.170Z,19.50
2023-05-25T00:59:42.052Z,19.50
2023-05-25T01:00:46.894Z,19.53
2023-05-25T01:01:50.582Z,19.53
2023-05-25T01:02:53.219Z,19.60
2023-05-25T01:03:56.712Z,19.62
2023-05-25T01:05:02.768Z,19.60
2023-05-25T01:06:11.805Z,19.59
2023-05-25T01:07:27.230Z,19.59
2023-05-25T01:08:33.779Z,19.57
2023-05-25T01:09:39.560Z,19.59
2023-05-25T01:10:43.130Z,19.60
2023-05-25T01:11:50.526Z,19.59
2023-05-25T01:12:55.411Z,19.59
2023-05-25T01:13:58.524Z,19.60
2023-05-25T01:15:04.113Z,19.58
2023-05-25T01:16:08.250Z,19.57
2023-05-25T01:17:14.302Z,19.58
2023-05-25T01:18:18.086Z,19.59
2023-05-25T01:19:20.156Z,19.58
2023-05-25T01:20:22.153Z,19.60
2023-05-25T01:21:38.095Z,19.65
2023-05-25T01:22:51.555Z,19.66
2023-05-25T01:24:03.965Z,19.71
2023-05-25T01:25:31.708Z,19.77
2023-05-25T01:26:46.745Z,19.76
2023-05-25T01:28:04.231Z,19.81
2023-05-25T01:29:06.952Z,19.81
2023-05-25T01:30:12.960Z,19.84
2023-05-25T01:31:16.417Z,19.84
2023-05-25T01:32:18.730Z,19.88
2023-05-25T01:33:21.753Z,19.90
2023-05-25T01:34:25.076Z,19.91
2023-05-25T01:35:28.385Z,19.95
2023-05-25T01:36:30.304Z,19.97
2023-05-25T01:37:32.268Z,20.00
2023-05-25T01:38:34.801Z,20.04
2023-05-25T01:39:36.718Z,20.06
2023-05-25T01:40:38.734Z,20.06
2023-05-25T01:41:40.925Z,20.06
2023-05-25T01:42:42.847Z,20.08
2023-05-25T01:43:45.140Z,20.09
2023-05-25T01:44:47.246Z,20.11
2023-05-25T01:45:49.420Z,20.12
2023-05-25T01:46:58.363Z,20.15
2023-05-25T01:48:30.694Z,20.19
2023-05-25T01:50:12.552Z,20.27
2023-05-25T01:51:28.181Z,20.30
2023-05-25T01:52:36.354Z,20.32
2023-05-25T01:54:03.392Z,20.32
2023-05-25T01:55:27.563Z,20.37
2023-05-25T01:56:31.823Z,20.32
2023-05-25T01:57:38.887Z,20.30
2023-05-25T01:58:44.025Z,20.31
2023-05-25T01:59:47.511Z,20.29
2023-05-25T02:00:51.819Z,20.31
2023-05-25T02:01:54.835Z,20.30
2023-05-25T02:02:57.243Z,20.35
2023-05-25T02:04:00.692Z,20.34
2023-05-25T02:05:03.132Z,20.36
2023-05-25T02:06:05.223Z,20.39
2023-05-25T02:07:07.461Z,20.43
2023-05-25T02:08:09.646Z,20.47
2023-05-25T02:09:12.245Z,20.51
2023-05-25T02:10:14.168Z,20.56
2023-05-25T02:11:16.555Z,20.61
2023-05-25T02:12:18.567Z,20.66
2023-05-25T02:13:20.929Z,20.79
2023-05-25T02:14:23.173Z,21.08
2023-05-25T02:15:25.280Z,21.41
2023-05-25T02:16:27.680Z,21.76
2023-05-25T02:17:30.356Z,22.07
2023-05-25T02:18:32.438Z,22.37
2023-05-25T02:19:35.536Z,22.64
2023-05-25T02:20:37.896Z,22.94
2023-05-25T02:21:39.791Z,23.24
2023-05-25T02:22:41.844Z,23.44
2023-05-25T02:23:43.648Z,23.62
2023-05-25T02:24:46.708Z,23.80
2023-05-25T02:25:48.668Z,24.00
2023-05-25T02:26:51.092Z,24.18
2023-05-25T02:27:53.032Z,24.29
2023-05-25T02:28:55.097Z,24.46
2023-05-25T02:29:57.285Z,24.56
2023-05-25T02:30:59.384Z,24.64
2023-05-25T02:32:01.365Z,24.82
2023-05-25T02:33:03.386Z,24.85
2023-05-25T02:34:05.344Z,24.95
2023-05-25T02:35:08.001Z,25.02
2023-05-25T02:36:10.041Z,25.05
2023-05-25T02:37:12.017Z,25.11
2023-05-25T02:38:14.111Z,25.16
2023-05-25T02:39:16.201Z,25.22
2023-05-25T02:40:18.290Z,25.20
2023-05-25T02:41:21.043Z,25.27
2023-05-25T02:42:23.137Z,25.32
2023-05-25T02:43:25.083Z,25.43
2023-05-25T02:44:27.061Z,25.63
2023-05-25T02:45:29.111Z,25.76
2023-05-25T02:46:31.039Z,25.80
2023-05-25T02:47:33.102Z,25.92
2023-05-25T02:48:35.184Z,25.99
2023-05-25T02:49:37.149Z,25.99
2023-05-25T02:50:38.983Z,26.02
2023-05-25T02:51:41.295Z,26.08
2023-05-25T02:52:43.275Z,26.03
2023-05-25T02:53:45.538Z,26.10
2023-05-25T02:54:47.416Z,26.10
2023-05-25T02:55:49.365Z,26.10
2023-05-25T02:56:51.391Z,26.02
2023-05-25T02:57:53.504Z,26.08
2023-05-25T02:58:55.625Z,26.04
2023-05-25T02:59:57.606Z,26.12
2023-05-25T03:01:00.402Z,26.22
2023-05-25T03:02:02.463Z,26.27
2023-05-25T03:03:04.583Z,26.19
2023-05-25T03:04:06.889Z,26.17
2023-05-25T03:05:09.031Z,26.18
2023-05-25T03:06:13.076Z,26.23
2023-05-25T03:07:14.908Z,26.21
2023-05-25T03:08:16.929Z,26.24
2023-05-25T03:09:19.003Z,26.24
2023-05-25T03:10:21.154Z,26.34
2023-05-25T03:11:23.517Z,26.36
2023-05-25T03:12:25.606Z,26.34
2023-05-25T03:13:27.714Z,26.38
2023-05-25T03:14:29.738Z,26.34
2023-05-25T03:15:31.687Z,26.34
2023-05-25T03:16:36.682Z,26.43
2023-05-25T03:17:38.850Z,26.53
2023-05-25T03:18:40.881Z,26.70
2023-05-25T03:19:44.288Z,26.83
2023-05-25T03:20:46.355Z,27.29
2023-05-25T03:21:48.304Z,27.06
2023-05-25T03:22:50.764Z,27.14
2023-05-25T03:23:52.665Z,27.21
2023-05-25T03:24:54.772Z,27.31
2023-05-25T03:25:56.859Z,27.40
2023-05-25T03:26:58.881Z,27.50
2023-05-25T03:28:00.976Z,27.53
2023-05-25T03:29:03.182Z,27.62
2023-05-25T03:30:06.468Z,27.59
2023-05-25T03:31:08.430Z,27.47
2023-05-25T03:32:10.377Z,27.57
2023-05-25T03:33:14.020Z,27.70
2023-05-25T03:34:16.334Z,28.17
2023-05-25T03:35:18.164Z,28.46
2023-05-25T03:36:20.208Z,28.20
2023-05-25T03:37:22.700Z,28.09
2023-05-25T03:38:24.617Z,28.11
2023-05-25T03:39:26.662Z,28.16
2023-05-25T03:40:28.619Z,28.31
2023-05-25T03:41:30.769Z,28.31
2023-05-25T03:42:32.674Z,28.30
2023-05-25T03:43:34.859Z,28.20
2023-05-25T03:44:37.935Z,28.16
2023-05-25T03:45:41.654Z,28.22
2023-05-25T03:46:43.899Z,28.19
2023-05-25T03:47:46.049Z,28.29
2023-05-25T03:48:48.126Z,28.23
2023-05-25T03:49:50.268Z,28.07
2023-05-25T03:50:52.320Z,27.86
2023-05-25T03:51:54.408Z,27.92
2023-05-25T03:52:56.333Z,28.20
2023-05-25T03:53:58.370Z,28.19
2023-05-25T03:55:02.168Z,28.11
2023-05-25T03:56:06.252Z,28.06
2023-05-25T03:57:08.340Z,28.17
2023-05-25T03:58:10.421Z,28.36
2023-05-25T03:59:12.651Z,28.49
2023-05-25T04:00:15.205Z,28.47
2023-05-25T04:01:17.184Z,28.42
2023-05-25T04:02:19.163Z,28.47
2023-05-25T04:03:21.349Z,28.62
2023-05-25T04:04:23.493Z,28.90
2023-05-25T04:05:26.793Z,29.14
2023-05-25T04:06:30.292Z,29.21
2023-05-25T04:07:32.341Z,29.19
2023-05-25T04:08:34.594Z,29.17
2023-05-25T04:09:36.621Z,29.08
2023-05-25T04:10:38.738Z,29.15
2023-05-25T04:11:41.036Z,29.21
2023-05-25T04:12:43.022Z,29.18
2023-05-25T04:13:44.942Z,29.28
2023-05-25T04:14:46.917Z,29.28
2023-05-25T04:15:50.581Z,29.32
2023-05-25T04:16:53.720Z,29.30
2023-05-25T04:17:55.915Z,29.24
2023-05-25T04:18:58.240Z,29.25
2023-05-25T04:20:00.268Z,29.29
2023-05-25T04:21:02.315Z,29.30
2023-05-25T04:22:04.679Z,29.39
2023-05-25T04:23:06.892Z,29.25
2023-05-25T04:24:09.068Z,29.22
2023-05-25T04:25:11.245Z,29.23
2023-05-25T04:26:13.506Z,29.24
2023-05-25T04:27:15.607Z,29.26
2023-05-25T04:28:18.199Z,29.17
2023-05-25T04:29:20.279Z,29.23
2023-05-25T04:30:22.478Z,29.27
2023-05-25T04:31:27.320Z,29.28
2023-05-25T04:32:32.358Z,29.38
2023-05-25T04:33:34.553Z,29.34
2023-05-25T04:34:36.786Z,29.39
2023-05-25T04:35:41.007Z,29.43
2023-05-25T04:36:44.889Z,29.28
2023-05-25T04:37:48.524Z,29.13
2023-05-25T04:38:52.405Z,29.12
2023-05-25T04:39:54.341Z,29.06
2023-05-25T04:40:57.775Z,29.25
2023-05-25T04:42:04.713Z,29.47
2023-05-25T04:43:07.024Z,28.94
2023-05-25T04:44:10.452Z,28.84
2023-05-25T04:45:17.357Z,29.35
2023-05-25T04:46:19.605Z,29.02
2023-05-25T04:47:22.869Z,29.05
2023-05-25T04:48:24.963Z,29.06
2023-05-25T04:49:27.487Z,28.92
2023-05-25T04:50:29.471Z,28.87
2023-05-25T04:51:32.585Z,28.95
2023-05-25T04:52:34.494Z,28.99
2023-05-25T04:53:36.605Z,28.96
2023-05-25T04:54:38.615Z,29.00
2023-05-25T04:55:40.539Z,29.12
2023-05-25T04:56:42.455Z,29.23
2023-05-25T04:57:44.573Z,29.08
2023-05-25T04:58:46.424Z,29.04
2023-05-25T04:59:48.573Z,29.06
2023-05-25T05:00:52.496Z,29.28
2023-05-25T05:01:54.962Z,29.23
2023-05-25T05:02:56.943Z,29.10
2023-05-25T05:03:59.079Z,29.01
2023-05-25T05:05:01.014Z,29.12
2023-05-25T05:06:04.148Z,29.09
2023-05-25T05:07:06.095Z,29.16
2023-05-25T05:08:08.186Z,28.97
2023-05-25T05:09:10.052Z,29.06
2023-05-25T05:10:12.085Z,29.11
2023-05-25T05:11:14.119Z,29.32
2023-05-25T05:12:16.339Z,29.41
2023-05-25T05:13:18.256Z,29.46
2023-05-25T05:14:20.620Z,29.48
2023-05-25T05:15:22.512Z,29.55
2023-05-25T05:16:24.851Z,29.44
2023-05-25T05:17:28.327Z,29.53
2023-05-25T05:18:30.336Z,29.89
2023-05-25T05:19:33.328Z,29.54
2023-05-25T05:20:35.604Z,29.42
2023-05-25T05:21:37.551Z,29.45
2023-05-25T05:22:39.716Z,29.54
2023-05-25T05:23:43.836Z,29.56
2023-05-25T05:24:46.005Z,29.71
2023-05-25T05:25:47.963Z,29.46
2023-05-25T05:26:58.242Z,29.13
2023-05-25T05:28:01.163Z,29.29
2023-05-25T05:29:04.720Z,29.08
2023-05-25T05:30:07.812Z,29.03
2023-05-25T05:31:10.002Z,28.94
2023-05-25T05:32:12.101Z,29.13
2023-05-25T05:33:14.776Z,29.25
2023-05-25T05:34:16.899Z,29.44
2023-05-25T05:35:19.128Z,29.43
2023-05-25T05:36:21.045Z,29.45
2023-05-25T05:37:23.039Z,29.47
2023-05-25T05:38:24.969Z,29.36
2023-05-25T05:39:28.095Z,29.30
2023-05-25T05:40:30.135Z,29.23
2023-05-25T05:41:32.118Z,29.21
2023-05-25T05:42:33.934Z,29.30
2023-05-25T05:43:36.205Z,29.40
2023-05-25T05:44:38.223Z,29.48
2023-05-25T05:45:41.355Z,29.37
2023-05-25T05:46:43.478Z,29.46
2023-05-25T05:47:45.727Z,29.46
2023-05-25T05:48:47.714Z,29.46
2023-05-25T05:49:49.761Z,29.38
2023-05-25T05:50:52.680Z,29.50
2023-05-25T05:51:54.661Z,29.61
2023-05-25T05:52:56.756Z,29.74
2023-05-25T05:53:58.921Z,29.82
2023-05-25T05:55:00.872Z,29.54
2023-05-25T05:56:03.876Z,29.47
2023-05-25T05:57:06.667Z,29.48
2023-05-25T05:58:08.675Z,29.58
2023-05-25T05:59:11.826Z,29.45
2023-05-25T06:00:16.290Z,29.39
2023-05-25T06:01:18.366Z,29.49
2023-05-25T06:02:20.473Z,29.56
2023-05-25T06:03:27.843Z,29.44
2023-05-25T06:04:30.066Z,29.44
2023-05-25T06:05:31.912Z,29.48
2023-05-25T06:06:35.263Z,29.57
2023-05-25T06:07:38.609Z,29.59
2023-05-25T06:08:43.424Z,29.74
2023-05-25T06:09:45.227Z,29.35
2023-05-25T06:10:47.407Z,29.42
2023-05-25T06:11:49.393Z,29.50
2023-05-25T06:12:52.551Z,29.32
2023-05-25T06:13:54.532Z,29.29
2023-05-25T06:14:56.547Z,29.44
2023-05-25T06:15:58.651Z,29.32
2023-05-25T06:17:01.992Z,29.25
2023-05-25T06:18:04.324Z,29.26
2023-05-25T06:19:06.387Z,29.42
2023-05-25T06:20:08.898Z,29.56
2023-05-25T06:21:12.713Z,29.55
2023-05-25T06:22:15.281Z,29.72
2023-05-25T06:23:18.958Z,29.56
2023-05-25T06:24:20.725Z,29.90
2023-05-25T06:25:22.652Z,29.55
2023-05-25T06:26:26.120Z,29.53
2023-05-25T06:27:27.984Z,29.40
2023-05-25T06:28:29.877Z,29.43
2023-05-25T06:29:31.885Z,29.75
2023-05-25T06:30:33.988Z,29.48
2023-05-25T06:31:36.663Z,29.39
2023-05-25T06:32:39.103Z,29.35
2023-05-25T06:33:40.986Z,29.35
2023-05-25T06:34:43.097Z,29.41
2023-05-25T06:35:46.865Z,29.50
2023-05-25T06:36:49.419Z,29.57
2023-05-25T06:37:52.456Z,29.54
2023-05-25T06:38:54.454Z,29.60
2023-05-25T06:39:57.691Z,29.52
2023-05-25T06:41:03.503Z,29.31
2023-05-25T06:42:05.798Z,29.52
2023-05-25T06:43:08.112Z,29.11
2023-05-25T06:44:10.139Z,28.98
2023-05-25T06:45:12.146Z,28.98
2023-05-25T06:46:18.402Z,28.88
2023-05-25T06:47:20.780Z,28.86
2023-05-25T06:48:22.737Z,28.77
2023-05-25T06:49:24.962Z,28.68
2023-05-25T06:50:26.942Z,28.49
2023-05-25T06:51:29.098Z,28.56
2023-05-25T06:52:31.784Z,28.58
2023-05-25T06:53:33.876Z,28.65
2023-05-25T06:54:35.817Z,28.58
2023-05-25T06:55:38.138Z,28.50
2023-05-25T06:56:40.045Z,28.49
2023-05-25T06:57:42.154Z,28.51
2023-05-25T06:58:43.985Z,28.57
2023-05-25T06:59:46.302Z,28.60
2023-05-25T07:00:48.228Z,28.65
2023-05-25T07:01:50.641Z,28.64
2023-05-25T07:02:52.568Z,28.63
2023-05-25T07:03:54.585Z,28.66
2023-05-25T07:04:56.591Z,28.71
2023-05-25T07:05:58.719Z,28.75
2023-05-25T07:07:01.151Z,28.82
2023-05-25T07:08:03.065Z,28.78
2023-05-25T07:09:04.976Z,28.74
2023-05-25T07:10:07.773Z,28.80
2023-05-25T07:11:12.599Z,28.71
2023-05-25T07:12:14.851Z,28.76
2023-05-25T07:13:16.682Z,28.77
2023-05-25T07:14:18.732Z,28.83
2023-05-25T07:15:21.822Z,28.88
2023-05-25T07:16:23.964Z,28.88
2023-05-25T07:17:26.825Z,28.87
2023-05-25T07:18:28.851Z,28.82
2023-05-25T07:19:31.237Z,28.75
2023-05-25T07:20:34.493Z,28.72
2023-05-25T07:21:36.913Z,28.80
2023-05-25T07:22:39.225Z,28.89
2023-05-25T07:23:41.557Z,28.98
2023-05-25T07:24:43.905Z,29.06
2023-05-25T07:25:46.361Z,29.06
2023-05-25T07:26:49.680Z,29.05
2023-05-25T07:27:55.156Z,28.97
2023-05-25T07:28:57.534Z,29.01
2023-05-25T07:29:59.508Z,28.94
2023-05-25T07:31:01.848Z,28.96
2023-05-25T07:32:03.833Z,29.00
2023-05-25T07:33:05.863Z,28.96
2023-05-25T07:34:07.723Z,28.97
2023-05-25T07:35:09.685Z,28.87
2023-05-25T07:36:11.693Z,28.93
2023-05-25T07:37:13.612Z,28.99
2023-05-25T07:38:15.544Z,28.92
2023-05-25T07:39:17.477Z,28.99
2023-05-25T07:40:19.389Z,29.03
2023-05-25T07:41:23.148Z,29.11
2023-05-25T07:42:25.204Z,29.19
2023-05-25T07:43:27.628Z,29.28
2023-05-25T07:44:30.256Z,29.32
2023-05-25T07:45:32.230Z,29.34
2023-05-25T07:46:34.115Z,29.29
2023-05-25T07:47:36.792Z,29.28
2023-05-25T07:48:39.035Z,29.27
2023-05-25T07:49:41.057Z,29.28
2023-05-25T07:50:43.073Z,29.32
2023-05-25T07:51:45.983Z,29.32
2023-05-25T07:52:47.923Z,29.29
2023-05-25T07:53:49.912Z,29.37
2023-05-25T07:54:51.849Z,29.40
2023-05-25T07:55:53.993Z,29.48
2023-05-25T07:56:56.092Z,29.52
2023-05-25T07:57:58.035Z,29.55
2023-05-25T07:59:01.227Z,29.62
2023-05-25T08:00:11.288Z,29.53
2023-05-25T08:01:13.324Z,29.53
2023-05-25T08:02:15.302Z,29.50
2023-05-25T08:03:18.039Z,29.46
2023-05-25T08:04:20.262Z,29.53
2023-05-25T08:05:22.507Z,29.58
2023-05-25T08:06:24.459Z,29.66
2023-05-25T08:07:26.413Z,29.73
2023-05-25T08:08:28.322Z,29.82
2023-05-25T08:09:30.517Z,29.91
2023-05-25T08:10:32.688Z,29.92
2023-05-25T08:11:34.793Z,29.96
2023-05-25T08:12:47.901Z,29.91
2023-05-25T08:13:51.690Z,29.95
2023-05-25T08:14:54.403Z,29.99
2023-05-25T08:15:56.337Z,30.03
2023-05-25T08:16:58.330Z,30.08
2023-05-25T08:18:00.636Z,30.11
2023-05-25T08:19:02.835Z,30.08
2023-05-25T08:20:06.717Z,29.96
2023-05-25T08:21:08.817Z,30.03
2023-05-25T08:22:11.207Z,30.09
2023-05-25T08:23:13.329Z,30.01
2023-05-25T08:24:15.205Z,30.02
2023-05-25T08:25:17.152Z,30.08
2023-05-25T08:26:34.839Z,30.14
2023-05-25T08:27:41.238Z,30.19
2023-05-25T08:28:43.248Z,30.13
2023-05-25T08:29:45.401Z,30.15
2023-05-25T08:30:47.577Z,30.24
2023-05-25T08:31:51.504Z,30.28
2023-05-25T08:32:53.470Z,30.21
2023-05-25T08:33:55.651Z,30.22
2023-05-25T08:34:57.842Z,30.14
2023-05-25T08:35:59.816Z,30.07
2023-05-25T08:37:01.857Z,30.09
2023-05-25T08:38:03.841Z,30.13
2023-05-25T08:39:05.926Z,30.13
2023-05-25T08:40:08.886Z,30.18
2023-05-25T08:41:13.211Z,30.24
2023-05-25T08:42:15.515Z,30.28
2023-05-25T08:43:17.426Z,30.36
2023-05-25T08:44:19.888Z,30.32
2023-05-25T08:45:34.177Z,30.28
2023-05-25T08:46:38.101Z,30.31
2023-05-25T08:47:44.951Z,30.23
2023-05-25T08:48:49.743Z,30.21
2023-05-25T08:49:55.622Z,30.27
2023-05-25T08:51:01.942Z,30.35
2023-05-25T08:52:04.866Z,30.35
2023-05-25T08:53:12.071Z,30.35
2023-05-25T08:54:15.086Z,30.41
2023-05-25T08:55:18.808Z,30.31
2023-05-25T08:56:20.753Z,30.37
2023-05-25T08:57:41.127Z,30.30
2023-05-25T08:58:53.958Z,30.27
2023-05-25T09:00:12.192Z,30.31
2023-05-25T09:01:18.585Z,30.36
2023-05-25T09:02:29.485Z,30.40
2023-05-25T09:03:32.085Z,30.40
2023-05-25T09:04:35.032Z,30.42
2023-05-25T09:05:38.149Z,30.49
2023-05-25T09:06:40.849Z,30.45
2023-05-25T09:07:44.488Z,30.51
2023-05-25T09:08:46.731Z,30.56
2023-05-25T09:09:48.912Z,30.52
2023-05-25T09:10:52.367Z,30.54
2023-05-25T09:11:55.799Z,30.58
2023-05-25T09:12:58.128Z,30.61
2023-05-25T09:14:00.649Z,30.67
2023-05-25T09:15:02.735Z,30.71
2023-05-25T09:16:05.397Z,30.75
2023-05-25T09:17:08.037Z,30.72
2023-05-25T09:18:11.025Z,30.64
2023-05-25T09:19:16.785Z,30.64
2023-05-25T09:20:19.160Z,30.74
2023-05-25T09:21:21.365Z,30.60
2023-05-25T09:22:23.416Z,30.60
2023-05-25T09:23:25.737Z,30.61
2023-05-25T09:24:27.773Z,30.64
2023-05-25T09:25:31.906Z,30.52
2023-05-25T09:26:34.773Z,30.36
2023-05-25T09:27:37.968Z,30.40
2023-05-25T09:28:47.594Z,30.50
2023-05-25T09:29:50.737Z,30.53
2023-05-25T09:30:52.794Z,30.61
2023-05-25T09:31:54.883Z,30.55
2023-05-25T09:32:57.046Z,30.51
2023-05-25T09:34:01.928Z,30.55
2023-05-25T09:35:08.145Z,30.61
2023-05-25T09:36:13.070Z,30.57
2023-05-25T09:37:21.253Z,30.62
2023-05-25T09:38:23.511Z,30.67
2023-05-25T09:39:27.208Z,30.66
2023-05-25T09:40:29.277Z,30.73
2023-05-25T09:41:31.310Z,30.71
2023-05-25T09:42:37.436Z,30.66
2023-05-25T09:43:46.819Z,30.60
2023-05-25T09:44:51.158Z,30.59
2023-05-25T09:45:53.660Z,30.62
2023-05-25T09:46:56.534Z,30.60
2023-05-25T09:47:59.621Z,30.61
2023-05-25T09:49:01.581Z,30.65
2023-05-25T09:50:05.051Z,30.64
2023-05-25T09:51:08.789Z,30.78
2023-05-25T09:52:12.767Z,30.74
2023-05-25T09:53:14.878Z,30.70
2023-05-25T09:54:17.271Z,30.66
2023-05-25T09:55:20.255Z,30.65
2023-05-25T09:56:23.967Z,30.61
2023-05-25T09:57:27.414Z,30.62
2023-05-25T09:58:29.534Z,30.63
2023-05-25T09:59:32.839Z,30.66
2023-05-25T10:00:34.734Z,30.69
2023-05-25T10:01:37.071Z,30.77
2023-05-25T10:02:39.192Z,30.81
2023-05-25T10:03:59.293Z,30.88
2023-05-25T10:05:07.582Z,30.90
2023-05-25T10:06:09.921Z,30.88
2023-05-25T10:07:13.442Z,30.87
2023-05-25T10:08:18.000Z,31.00
2023-05-25T10:09:20.907Z,30.88
2023-05-25T10:10:24.140Z,30.83
2023-05-25T10:11:27.696Z,30.77
2023-05-25T10:12:30.130Z,30.65
2023-05-25T10:13:33.806Z,30.61
2023-05-25T10:14:39.049Z,30.53
2023-05-25T10:15:43.142Z,30.53
2023-05-25T10:16:50.574Z,30.60
2023-05-25T10:17:58.112Z,30.58
2023-05-25T10:19:12.910Z,30.49
2023-05-25T10:20:15.766Z,30.55
2023-05-25T10:21:19.484Z,30.60
2023-05-25T10:22:28.814Z,30.78
2023-05-25T10:23:42.176Z,30.79
2023-05-25T10:25:09.112Z,30.80
2023-05-25T10:26:16.821Z,30.78
2023-05-25T10:27:27.399Z,30.78
2023-05-25T10:28:35.946Z,30.82
2023-05-25T10:29:39.477Z,30.88
2023-05-25T10:30:42.079Z,30.87
2023-05-25T10:31:44.154Z,30.91
2023-05-25T10:32:47.550Z,30.88
2023-05-25T10:33:52.175Z,30.87
2023-05-25T10:34:57.500Z,30.93
2023-05-25T10:36:10.214Z,30.97
2023-05-25T10:37:14.948Z,31.00
2023-05-25T10:38:18.751Z,31.04
2023-05-25T10:39:21.928Z,31.05
2023-05-25T10:40:24.334Z,30.91
2023-05-25T10:41:26.789Z,30.88
2023-05-25T10:42:30.077Z,30.83
2023-05-25T10:43:32.791Z,30.79
2023-05-25T10:44:35.385Z,30.79
2023-05-25T10:45:37.638Z,30.79
2023-05-25T10:46:40.532Z,30.83
2023-05-25T10:47:42.797Z,30.79
2023-05-25T10:48:49.518Z,30.78
2023-05-25T10:49:59.667Z,30.74
2023-05-25T10:51:01.574Z,30.76
2023-05-25T10:52:06.388Z,30.77
2023-05-25T10:53:14.024Z,30.87
2023-05-25T10:54:16.079Z,30.95
2023-05-25T10:55:18.120Z,31.06
2023-05-25T10:56:20.316Z,31.15
2023-05-25T10:57:24.424Z,31.12
2023-05-25T10:58:28.723Z,31.08
2023-05-25T10:59:30.817Z,31.05
2023-05-25T11:00:32.894Z,31.00
2023-05-25T11:01:50.425Z,31.02
2023-05-25T11:02:56.127Z,30.95
2023-05-25T11:04:17.821Z,31.03
2023-05-25T11:05:31.663Z,31.08
2023-05-25T11:06:45.880Z,31.11
2023-05-25T11:07:58.235Z,31.03
2023-05-25T11:09:02.163Z,30.97
2023-05-25T11:10:04.346Z,30.88
2023-05-25T11:11:06.514Z,30.88
2023-05-25T11:12:08.819Z,30.78
2023-05-25T11:13:31.929Z,30.79
2023-05-25T11:14:37.278Z,30.73
2023-05-25T11:15:40.248Z,30.70
2023-05-25T11:16:42.225Z,30.78
2023-05-25T11:18:00.381Z,30.91
2023-05-25T11:19:03.202Z,30.82
2023-05-25T11:20:06.607Z,30.81
2023-05-25T11:21:23.938Z,30.83
2023-05-25T11:22:37.652Z,30.88
2023-05-25T11:23:53.531Z,30.90
2023-05-25T11:24:58.373Z,30.90
2023-05-25T11:26:06.863Z,30.94
2023-05-25T11:27:09.155Z,30.88
2023-05-25T11:28:12.081Z,30.90
2023-05-25T11:29:16.402Z,30.93
2023-05-25T11:30:18.643Z,30.93
2023-05-25T11:31:29.288Z,30.93
2023-05-25T11:32:31.419Z,30.87
2023-05-25T11:33:33.476Z,30.84
2023-05-25T11:34:35.503Z,30.83
2023-05-25T11:35:37.540Z,30.82
2023-05-25T11:36:39.770Z,30.86
2023-05-25T11:37:50.161Z,30.89
2023-05-25T11:39:04.772Z,30.88
2023-05-25T11:40:11.956Z,30.93
2023-05-25T11:41:18.703Z,30.96
2023-05-25T11:42:23.146Z,30.96
2023-05-25T11:43:26.982Z,30.96
2023-05-25T11:44:31.419Z,30.95
2023-05-25T11:45:38.431Z,30.95
2023-05-25T11:46:43.880Z,30.94
2023-05-25T11:47:46.190Z,30.92
2023-05-25T11:48:53.370Z,30.97
2023-05-25T11:49:56.598Z,30.99
2023-05-25T11:51:05.388Z,31.18
2023-05-25T11:52:07.492Z,31.25
2023-05-25T11:53:10.763Z,31.15
2023-05-25T11:54:27.735Z,31.16
2023-05-25T11:55:29.780Z,31.12
2023-05-25T11:56:35.888Z,31.04
2023-05-25T11:57:39.275Z,31.02
2023-05-25T11:58:41.853Z,31.04
2023-05-25T11:59:54.369Z,31.14
2023-05-25T12:00:56.572Z,31.13
2023-05-25T12:02:03.421Z,31.16
2023-05-25T12:03:05.882Z,31.13
2023-05-25T12:04:12.103Z,31.12
2023-05-25T12:05:14.103Z,31.10
2023-05-25T12:06:36.883Z,31.22
2023-05-25T12:07:47.008Z,31.25
2023-05-25T12:08:49.019Z,31.27
2023-05-25T12:09:51.283Z,31.30
2023-05-25T12:10:53.248Z,31.33
2023-05-25T12:11:55.539Z,31.33
2023-05-25T12:12:58.585Z,31.33
2023-05-25T12:14:03.863Z,31.31
2023-05-25T12:15:06.446Z,31.31
2023-05-25T12:16:08.797Z,31.30
2023-05-25T12:17:11.560Z,31.29
2023-05-25T12:18:13.767Z,31.21
2023-05-25T12:19:17.124Z,31.16
2023-05-25T12:20:19.835Z,31.20
2023-05-25T12:21:22.647Z,31.26
2023-05-25T12:22:24.710Z,31.28
2023-05-25T12:23:27.223Z,31.31
2023-05-25T12:24:29.339Z,31.31
2023-05-25T12:25:46.115Z,31.30
2023-05-25T12:27:01.911Z,31.32
2023-05-25T12:28:16.502Z,31.35
2023-05-25T12:29:18.734Z,31.30
2023-05-25T12:30:28.424Z,31.28
2023-05-25T12:31:34.715Z,31.40
2023-05-25T12:33:01.669Z,31.30
2023-05-25T12:34:10.821Z,31.21
2023-05-25T12:35:12.907Z,31.15
2023-05-25T12:36:15.245Z,31.12
2023-05-25T12:37:22.464Z,31.15
2023-05-25T12:38:24.625Z,31.06
2023-05-25T12:39:29.497Z,31.03
2023-05-25T12:40:32.062Z,31.00
2023-05-25T12:41:55.064Z,31.18
2023-05-25T12:42:57.928Z,31.17
2023-05-25T12:44:00.768Z,31.13
2023-05-25T12:45:02.828Z,31.13
2023-05-25T12:46:04.974Z,31.14
2023-05-25T12:47:23.834Z,31.19
2023-05-25T12:48:26.863Z,31.05
2023-05-25T12:49:32.004Z,31.03
2023-05-25T12:50:34.030Z,30.99
2023-05-25T12:51:39.442Z,30.98
2023-05-25T12:52:46.981Z,30.96
2023-05-25T12:53:50.484Z,30.93
2023-05-25T12:54:52.350Z,30.94
2023-05-25T12:56:04.636Z,31.02
2023-05-25T12:57:08.125Z,31.02
2023-05-25T12:58:27.652Z,31.13
2023-05-25T12:59:31.460Z,31.08
2023-05-25T13:00:36.531Z,31.10
2023-05-25T13:01:38.551Z,31.11
2023-05-25T13:02:48.050Z,31.14
2023-05-25T13:03:53.784Z,31.14
2023-05-25T13:04:55.941Z,31.10
2023-05-25T13:06:02.714Z,31.09
2023-05-25T13:07:05.962Z,31.08
2023-05-25T13:08:07.874Z,31.05
2023-05-25T13:09:10.253Z,31.00
2023-05-25T13:10:18.080Z,30.92
2023-05-25T13:11:20.163Z,30.86
2023-05-25T13:12:22.197Z,30.83
2023-05-25T13:13:24.171Z,30.73
2023-05-25T13:14:26.976Z,30.70
2023-05-25T13:15:29.136Z,30.70
2023-05-25T13:16:33.378Z,30.73
2023-05-25T13:17:35.880Z,30.75
2023-05-25T13:18:38.002Z,30.80
2023-05-25T13:19:40.685Z,30.83
2023-05-25T13:20:42.665Z,30.85
2023-05-25T13:21:46.176Z,30.90
2023-05-25T13:22:50.638Z,30.92
2023-05-25T13:23:52.700Z,30.93
2023-05-25T13:24:54.602Z,30.89
2023-05-25T13:25:56.527Z,30.88
2023-05-25T13:26:58.617Z,30.84
2023-05-25T13:28:01.288Z,30.78
2023-05-25T13:29:03.543Z,30.68
2023-05-25T13:30:09.001Z,30.65
2023-05-25T13:31:11.043Z,30.60
2023-05-25T13:32:13.082Z,30.60
2023-05-25T13:33:15.067Z,30.58
2023-05-25T13:34:17.837Z,30.53
2023-05-25T13:35:34.373Z,30.50
2023-05-25T13:36:36.583Z,30.45
2023-05-25T13:37:38.786Z,30.40
2023-05-25T13:38:41.294Z,30.40
2023-05-25T13:39:43.145Z,30.36
2023-05-25T13:40:45.655Z,30.36
2023-05-25T13:41:48.331Z,30.36
2023-05-25T13:42:50.405Z,30.39
2023-05-25T13:43:53.278Z,30.42
2023-05-25T13:44:55.253Z,30.47